This is the latest recevied weather packets stored in our database for station/object SQ6RR-12. If no packets are shown the sender has not sent any weather packets the latest 10 day(s).
| Time | Temp. | Humidity | Pressure | Rain* | Wind** | Luminosity | Snow |
|---|---|---|---|---|---|---|---|
| 1777906241 | 28.33° C | 33% | 1013.5 hPa | 0 mm | - | - | - |
| 1777905986 | 27.78° C | 33% | 1013.4 hPa | 0 mm | - | - | - |
| 1777905717 | 27.22° C | 34% | 1013.5 hPa | 0 mm | - | - | - |
| 1777905471 | 27.22° C | 35% | 1013.6 hPa | 0 mm | - | - | - |
| 1777905218 | 27.22° C | 36% | 1013.6 hPa | 0 mm | - | - | - |
| 1777904965 | 25.56° C | 38% | 1013.6 hPa | 0 mm | - | - | - |
| 1777904688 | 25.56° C | 36% | 1013.7 hPa | 0 mm | - | - | - |
| 1777904421 | 24.44° C | 39% | 1013.7 hPa | 0 mm | - | - | - |
| 1777904137 | 24.44° C | 38% | 1013.8 hPa | 0 mm | - | - | - |
| 1777903852 | 25° C | 37% | 1013.7 hPa | 0 mm | - | - | - |
| 1777903577 | 25° C | 36% | 1013.7 hPa | 0 mm | - | - | - |
| 1777903327 | 25° C | 38% | 1013.8 hPa | 0 mm | - | - | - |
| 1777903051 | 25° C | 37% | 1013.8 hPa | 0 mm | - | - | - |
| 1777902802 | 25° C | 38% | 1013.8 hPa | 0 mm | - | - | - |
| 1777902527 | 25° C | 38% | 1013.9 hPa | 0 mm | - | - | - |
| 1777902245 | 25° C | 37% | 1013.9 hPa | 0 mm | - | - | - |
| 1777901960 | 25° C | 37% | 1013.8 hPa | 0 mm | - | - | - |
| 1777901682 | 25° C | 37% | 1013.9 hPa | 0 mm | - | - | - |
| 1777901404 | 25.56° C | 36% | 1013.9 hPa | 0 mm | - | - | - |
| 1777901146 | 25.56° C | 35% | 1013.9 hPa | 0 mm | - | - | - |
| 1777900867 | 26.11° C | 35% | 1013.9 hPa | 0 mm | - | - | - |
| 1777900589 | 27.22° C | 33% | 1014 hPa | 0 mm | - | - | - |
| 1777900326 | 27.78° C | 33% | 1014 hPa | 0 mm | - | - | - |
| 1777900055 | 27.22° C | 33% | 1014.1 hPa | 0 mm | - | - | - |
| 1777899787 | 27.22° C | 33% | 1014.2 hPa | 0 mm | - | - | - |
* Rain latest hour (hover to see other rain measurements)
** Current wind speed in m/s (hover to see current wind gust speed)